createdAt,value
2023-05-14T00:01:18.465Z,99.90
2023-05-14T00:03:45.600Z,99.90
2023-05-14T00:06:12.554Z,99.90
2023-05-14T00:08:39.373Z,99.90
2023-05-14T00:11:06.278Z,99.90
2023-05-14T00:13:33.121Z,99.90
2023-05-14T00:15:59.961Z,99.90
2023-05-14T00:18:27.051Z,99.90
2023-05-14T00:20:55.071Z,99.90
2023-05-14T00:23:22.803Z,99.90
2023-05-14T00:25:49.883Z,99.90
2023-05-14T00:28:17.002Z,99.90
2023-05-14T00:30:44.199Z,99.90
2023-05-14T00:33:11.016Z,99.90
2023-05-14T00:35:38.078Z,99.90
2023-05-14T00:38:04.940Z,99.90
2023-05-14T00:40:31.786Z,99.90
2023-05-14T00:42:58.610Z,99.90
2023-05-14T00:45:26.200Z,99.90
2023-05-14T00:47:54.156Z,99.90
2023-05-14T00:50:21.787Z,99.90
2023-05-14T00:52:49.446Z,99.90
2023-05-14T00:55:16.943Z,99.90
2023-05-14T00:57:44.111Z,99.90
2023-05-14T01:00:11.364Z,99.90
2023-05-14T01:02:38.285Z,99.90
2023-05-14T01:05:05.647Z,99.90
2023-05-14T01:07:36.989Z,99.90
2023-05-14T01:10:15.512Z,99.90
2023-05-14T01:13:00.138Z,99.90
2023-05-14T01:15:32.551Z,99.90
2023-05-14T01:18:07.930Z,99.90
2023-05-14T01:20:35.087Z,99.90
2023-05-14T01:23:02.219Z,99.90
2023-05-14T01:25:31.884Z,99.90
2023-05-14T01:28:15.557Z,99.90
2023-05-14T01:31:00.754Z,99.90
2023-05-14T01:33:30.846Z,99.90
2023-05-14T01:35:58.785Z,99.90
2023-05-14T01:38:27.721Z,99.90
2023-05-14T01:40:55.541Z,99.90
2023-05-14T01:43:23.651Z,99.90
2023-05-14T01:45:50.733Z,99.90
2023-05-14T01:48:17.949Z,99.90
2023-05-14T01:50:44.821Z,99.90
2023-05-14T01:53:11.659Z,99.90
2023-05-14T01:55:38.621Z,99.90
2023-05-14T01:58:05.571Z,99.90
2023-05-14T02:00:32.546Z,99.90
2023-05-14T02:02:59.697Z,99.90
2023-05-14T02:05:26.647Z,99.90
2023-05-14T02:07:53.565Z,99.90
2023-05-14T02:10:20.609Z,99.90
2023-05-14T02:12:47.696Z,99.90
2023-05-14T02:15:14.641Z,99.90
2023-05-14T02:17:41.559Z,99.90
2023-05-14T02:20:10.429Z,99.90
2023-05-14T02:22:37.720Z,99.90
2023-05-14T02:25:04.879Z,99.90
2023-05-14T02:27:31.777Z,99.90
2023-05-14T02:30:00.956Z,99.90
2023-05-14T02:32:28.666Z,99.90
2023-05-14T02:34:55.730Z,99.90
2023-05-14T02:37:22.556Z,99.90
2023-05-14T02:39:49.661Z,99.90
2023-05-14T02:42:16.489Z,99.90
2023-05-14T02:44:43.346Z,99.90
2023-05-14T02:47:10.341Z,99.90
2023-05-14T02:49:37.202Z,99.90
2023-05-14T02:52:04.356Z,99.90
2023-05-14T02:54:31.165Z,99.90
2023-05-14T02:56:58.131Z,99.90
2023-05-14T02:59:25.253Z,99.90
2023-05-14T03:01:52.755Z,99.90
2023-05-14T03:04:20.398Z,99.90
2023-05-14T03:06:47.256Z,99.90
2023-05-14T03:09:14.547Z,99.90
2023-05-14T03:11:41.577Z,99.90
2023-05-14T03:14:08.510Z,99.90
2023-05-14T03:16:35.361Z,99.90
2023-05-14T03:19:02.257Z,99.90
2023-05-14T03:21:29.137Z,99.90
2023-05-14T03:23:55.973Z,99.90
2023-05-14T03:26:22.868Z,99.90
2023-05-14T03:28:50.978Z,99.90
2023-05-14T03:31:17.986Z,99.90
2023-05-14T03:33:45.223Z,99.90
2023-05-14T03:36:12.183Z,99.90
2023-05-14T03:38:39.038Z,99.90
2023-05-14T03:41:05.908Z,99.90
2023-05-14T03:43:32.774Z,99.90
2023-05-14T03:46:00.140Z,99.90
2023-05-14T03:48:27.101Z,99.90
2023-05-14T03:50:54.208Z,99.90
2023-05-14T03:53:21.059Z,99.90
2023-05-14T03:55:47.856Z,99.90
2023-05-14T03:58:14.853Z,99.90
2023-05-14T04:00:44.732Z,99.90
2023-05-14T04:03:12.156Z,99.90
2023-05-14T04:05:39.141Z,99.90
2023-05-14T04:08:06.030Z,99.90
2023-05-14T04:10:32.958Z,99.90
2023-05-14T04:12:59.984Z,99.90
2023-05-14T04:15:27.110Z,99.90
2023-05-14T04:17:53.981Z,99.90
2023-05-14T04:20:21.010Z,99.90
2023-05-14T04:22:47.928Z,99.90
2023-05-14T04:25:14.814Z,99.90
2023-05-14T04:27:41.648Z,99.90
2023-05-14T04:30:09.182Z,99.90
2023-05-14T04:32:36.741Z,99.90
2023-05-14T04:35:04.489Z,99.90
2023-05-14T04:37:31.964Z,99.90
2023-05-14T04:39:58.835Z,99.90
2023-05-14T04:42:25.718Z,99.90
2023-05-14T04:44:52.660Z,99.90
2023-05-14T04:47:21.244Z,99.90
2023-05-14T04:49:48.248Z,99.90
2023-05-14T04:52:15.243Z,99.90
2023-05-14T04:54:42.183Z,99.90
2023-05-14T04:57:09.372Z,99.90
2023-05-14T04:59:36.254Z,99.90
2023-05-14T05:02:03.083Z,99.90
2023-05-14T05:04:29.962Z,99.90
2023-05-14T05:06:56.796Z,99.90
2023-05-14T05:09:23.783Z,99.90
2023-05-14T05:11:50.743Z,99.90
2023-05-14T05:14:17.607Z,99.90
2023-05-14T05:19:12.994Z,99.90
2023-05-14T05:21:40.955Z,99.90
2023-05-14T05:24:08.684Z,99.90
2023-05-14T05:26:38.361Z,99.90
2023-05-14T05:29:06.009Z,99.90
2023-05-14T05:31:33.042Z,99.90
2023-05-14T05:34:00.723Z,99.90
2023-05-14T05:36:27.659Z,99.90
2023-05-14T05:38:55.152Z,99.90
2023-05-14T05:41:22.777Z,99.90
2023-05-14T05:43:49.626Z,99.90
2023-05-14T05:46:16.513Z,99.90
2023-05-14T05:48:43.381Z,99.90
2023-05-14T05:51:10.336Z,99.90
2023-05-14T05:53:37.191Z,99.90
2023-05-14T05:56:04.149Z,99.90
2023-05-14T05:58:31.034Z,99.90
2023-05-14T06:00:58.360Z,99.90
2023-05-14T06:03:25.430Z,99.90
2023-05-14T06:05:52.816Z,99.90
2023-05-14T06:08:19.863Z,99.90
2023-05-14T06:10:47.668Z,99.90
2023-05-14T06:13:14.733Z,99.90
2023-05-14T06:15:41.562Z,99.90
2023-05-14T06:18:08.510Z,99.90
2023-05-14T06:20:35.453Z,99.90
2023-05-14T06:23:02.293Z,99.90
2023-05-14T06:25:29.218Z,99.90
2023-05-14T06:27:56.124Z,99.90
2023-05-14T06:30:23.381Z,99.90
2023-05-14T06:32:50.753Z,99.90
2023-05-14T06:35:19.157Z,99.90
2023-05-14T06:37:46.122Z,99.90
2023-05-14T06:40:16.022Z,99.90
2023-05-14T06:42:42.842Z,99.90
2023-05-14T06:45:09.991Z,99.90
2023-05-14T06:47:36.902Z,99.90
2023-05-14T06:50:03.933Z,99.90
2023-05-14T06:52:30.963Z,99.90
2023-05-14T06:54:57.811Z,99.20
2023-05-14T06:57:24.895Z,99.90
2023-05-14T06:59:51.734Z,98.80
2023-05-14T07:02:18.621Z,98.30
2023-05-14T07:04:45.556Z,97.40
2023-05-14T07:07:15.559Z,99.90
2023-05-14T07:09:42.859Z,99.90
2023-05-14T07:12:09.835Z,99.90
2023-05-14T07:14:36.634Z,99.90
2023-05-14T07:17:03.607Z,99.50
2023-05-14T07:19:30.694Z,99.90
2023-05-14T07:21:58.070Z,99.90
2023-05-14T07:24:24.935Z,99.90
2023-05-14T07:26:52.051Z,96.20
2023-05-14T07:29:18.861Z,94.80
2023-05-14T07:31:45.777Z,95.60
2023-05-14T07:34:13.017Z,96.60
2023-05-14T07:36:40.001Z,98.80
2023-05-14T07:39:06.938Z,98.50
2023-05-14T07:41:33.959Z,97.30
2023-05-14T07:44:00.851Z,98.20
2023-05-14T07:46:27.751Z,97.80
2023-05-14T07:48:54.641Z,98.50
2023-05-14T07:51:21.519Z,99.90
2023-05-14T07:53:48.342Z,99.90
2023-05-14T07:56:15.179Z,99.90
2023-05-14T07:58:42.030Z,99.90
2023-05-14T08:01:09.325Z,99.90
2023-05-14T08:03:36.333Z,99.90
2023-05-14T08:06:04.100Z,99.90
2023-05-14T08:08:31.179Z,99.90
2023-05-14T08:10:58.041Z,99.90
2023-05-14T08:13:25.111Z,99.90
2023-05-14T08:15:52.485Z,99.90
2023-05-14T08:18:19.330Z,99.90
2023-05-14T08:20:46.272Z,99.90
2023-05-14T08:23:13.193Z,99.90
2023-05-14T08:25:40.126Z,99.90
2023-05-14T08:28:07.572Z,99.50
2023-05-14T08:30:34.508Z,99.40
2023-05-14T08:33:01.469Z,99.60
2023-05-14T08:35:28.353Z,99.90
2023-05-14T08:37:57.046Z,97.00
2023-05-14T08:40:24.294Z,97.30
2023-05-14T08:42:52.449Z,99.80
2023-05-14T08:45:21.178Z,97.90
2023-05-14T08:47:50.777Z,99.90
2023-05-14T08:50:21.926Z,99.90
2023-05-14T08:52:50.112Z,99.90
2023-05-14T08:55:17.012Z,99.90
2023-05-14T08:57:43.994Z,99.90
2023-05-14T09:00:12.107Z,99.90
2023-05-14T09:02:41.194Z,99.90
2023-05-14T09:05:09.487Z,99.90
2023-05-14T09:07:36.542Z,99.90
2023-05-14T09:10:04.155Z,99.90
2023-05-14T09:12:31.546Z,99.90
2023-05-14T09:14:58.418Z,99.90
2023-05-14T09:17:30.057Z,99.90
2023-05-14T09:19:57.089Z,99.90
2023-05-14T09:22:23.988Z,99.90
2023-05-14T09:25:05.306Z,99.90
2023-05-14T09:27:33.513Z,99.90
2023-05-14T09:30:13.897Z,99.90
2023-05-14T09:32:50.453Z,99.90
2023-05-14T09:35:20.807Z,99.90
2023-05-14T09:37:52.978Z,99.90
2023-05-14T09:40:21.730Z,99.90
2023-05-14T09:42:49.573Z,99.90
2023-05-14T09:45:17.347Z,99.90
2023-05-14T09:47:45.521Z,99.90
2023-05-14T09:50:13.004Z,99.90
2023-05-14T09:52:40.097Z,99.90
2023-05-14T09:55:08.114Z,99.90
2023-05-14T09:57:35.549Z,99.90
2023-05-14T10:00:02.526Z,99.90
2023-05-14T10:02:37.980Z,99.90
2023-05-14T10:05:06.902Z,99.90
2023-05-14T10:07:45.066Z,99.90
2023-05-14T10:10:16.525Z,99.90
2023-05-14T10:12:46.400Z,99.90
2023-05-14T10:15:19.764Z,99.90
2023-05-14T10:17:50.244Z,99.90
2023-05-14T10:20:17.854Z,99.90
2023-05-14T10:22:45.221Z,99.90
2023-05-14T10:25:12.673Z,99.90
2023-05-14T10:27:41.174Z,99.90
2023-05-14T10:30:12.844Z,99.90
2023-05-14T10:32:42.099Z,99.90
2023-05-14T10:35:25.489Z,99.90
2023-05-14T10:37:52.368Z,99.90
2023-05-14T10:40:19.592Z,99.90
2023-05-14T10:42:46.995Z,99.90
2023-05-14T10:45:15.236Z,99.90
2023-05-14T10:47:47.234Z,99.90
2023-05-14T10:50:15.859Z,99.90
2023-05-14T10:52:44.034Z,99.90
2023-05-14T10:55:14.428Z,99.90
2023-05-14T10:57:45.263Z,99.90
2023-05-14T11:00:14.193Z,99.90
2023-05-14T11:02:45.104Z,99.90
2023-05-14T11:05:16.024Z,99.90
2023-05-14T11:07:45.780Z,99.90
2023-05-14T11:10:17.253Z,99.90
2023-05-14T11:12:48.171Z,99.90
2023-05-14T11:15:18.362Z,99.90
2023-05-14T11:17:47.041Z,99.90
2023-05-14T11:20:14.889Z,99.90
2023-05-14T11:22:42.696Z,99.90
2023-05-14T11:25:11.174Z,99.90
2023-05-14T11:27:39.058Z,99.90
2023-05-14T11:30:12.441Z,98.60
2023-05-14T11:32:39.886Z,99.90
2023-05-14T11:35:07.202Z,99.90
2023-05-14T11:37:34.048Z,99.90
2023-05-14T11:40:02.192Z,99.90
2023-05-14T11:42:29.073Z,99.90
2023-05-14T11:44:56.035Z,99.90
2023-05-14T11:47:23.070Z,99.90
2023-05-14T11:49:50.087Z,99.90
2023-05-14T11:52:19.698Z,99.90
2023-05-14T11:54:46.708Z,99.90
2023-05-14T11:57:21.634Z,99.90
2023-05-14T11:59:50.050Z,99.90
2023-05-14T12:02:19.828Z,99.90
2023-05-14T12:04:52.156Z,99.90
2023-05-14T12:07:19.582Z,99.90
2023-05-14T12:09:49.907Z,99.40
2023-05-14T12:12:21.726Z,97.20
2023-05-14T12:14:49.730Z,99.20
2023-05-14T12:17:23.377Z,99.90
2023-05-14T12:19:52.411Z,92.30
2023-05-14T12:22:21.236Z,93.60
2023-05-14T12:24:59.611Z,93.60
2023-05-14T12:27:30.569Z,87.50
2023-05-14T12:30:19.081Z,77.50
2023-05-14T12:32:46.863Z,78.10
2023-05-14T12:35:13.746Z,74.30
2023-05-14T12:37:40.670Z,72.50
2023-05-14T12:40:10.900Z,71.70
2023-05-14T12:42:37.957Z,71.70
2023-05-14T12:45:08.093Z,72.00
2023-05-14T12:47:35.356Z,75.50
2023-05-14T12:50:02.659Z,74.70
2023-05-14T12:54:59.396Z,71.70
2023-05-14T12:57:27.826Z,73.80
2023-05-14T12:59:55.766Z,75.00
2023-05-14T13:02:22.640Z,75.60
2023-05-14T13:04:49.460Z,75.00
2023-05-14T13:07:16.394Z,77.70
2023-05-14T13:09:43.263Z,77.40
2023-05-14T13:12:10.287Z,76.70
2023-05-14T13:14:37.130Z,72.90
2023-05-14T13:17:05.369Z,72.10
2023-05-14T13:19:32.361Z,69.50
2023-05-14T13:21:59.268Z,68.30
2023-05-14T13:24:26.317Z,67.80
2023-05-14T13:26:53.198Z,72.90
2023-05-14T13:29:20.080Z,76.00
2023-05-14T13:31:47.272Z,77.00
2023-05-14T13:34:14.676Z,75.60
2023-05-14T13:36:43.748Z,72.40
2023-05-14T13:39:14.135Z,78.50
2023-05-14T13:41:41.532Z,79.20
2023-05-14T13:44:08.461Z,81.60
2023-05-14T13:46:35.394Z,78.10
2023-05-14T13:49:02.248Z,81.60
2023-05-14T13:51:29.054Z,78.40
2023-05-14T13:53:56.206Z,82.30
2023-05-14T13:56:23.411Z,77.70
2023-05-14T13:58:50.356Z,77.40
2023-05-14T14:01:17.226Z,77.30
2023-05-14T14:03:44.179Z,80.90
2023-05-14T14:06:11.060Z,78.80
2023-05-14T14:08:37.902Z,75.30
2023-05-14T14:11:04.974Z,75.70
2023-05-14T14:13:31.865Z,74.40
2023-05-14T14:15:58.798Z,77.80
2023-05-14T14:18:25.944Z,78.10
2023-05-14T14:20:52.786Z,77.30
2023-05-14T14:23:19.800Z,76.50
2023-05-14T14:25:46.681Z,76.40
2023-05-14T14:28:14.027Z,77.30
2023-05-14T14:30:41.291Z,78.10
2023-05-14T14:33:08.270Z,74.40
2023-05-14T14:35:35.890Z,77.10
2023-05-14T14:38:02.790Z,75.70
2023-05-14T14:40:29.924Z,74.80
2023-05-14T14:42:56.886Z,74.70
2023-05-14T14:45:23.943Z,73.50
2023-05-14T14:47:51.057Z,71.90
2023-05-14T14:50:18.004Z,70.20
2023-05-14T14:52:46.143Z,69.60
2023-05-14T14:55:13.180Z,71.20
2023-05-14T14:57:40.078Z,72.50
2023-05-14T15:00:07.614Z,72.40
2023-05-14T15:02:35.134Z,70.90
2023-05-14T15:05:02.374Z,68.50
2023-05-14T15:07:33.104Z,70.40
2023-05-14T15:10:00.253Z,70.00
2023-05-14T15:12:27.150Z,70.20
2023-05-14T15:14:53.965Z,68.40
2023-05-14T15:17:20.803Z,71.50
2023-05-14T15:19:47.739Z,71.20
2023-05-14T15:22:14.573Z,73.50
2023-05-14T15:24:41.366Z,71.80
2023-05-14T15:27:08.184Z,72.20
2023-05-14T15:29:34.977Z,71.10
2023-05-14T15:32:03.264Z,72.90
2023-05-14T15:34:30.180Z,72.20
2023-05-14T15:36:57.048Z,74.70
2023-05-14T15:39:23.893Z,74.70
2023-05-14T15:41:50.823Z,76.80
2023-05-14T15:44:17.748Z,76.30
2023-05-14T15:46:44.711Z,78.20
2023-05-14T15:49:11.711Z,76.90
2023-05-14T15:51:38.593Z,77.50
2023-05-14T15:54:05.574Z,77.80
2023-05-14T15:56:32.514Z,77.00
2023-05-14T15:58:59.358Z,79.30
2023-05-14T16:01:26.257Z,78.60
2023-05-14T16:03:53.614Z,79.80
2023-05-14T16:06:20.694Z,79.50
2023-05-14T16:08:47.683Z,77.60
2023-05-14T16:11:14.521Z,78.20
2023-05-14T16:13:41.761Z,78.40
2023-05-14T16:16:08.829Z,77.20
2023-05-14T16:18:35.860Z,77.40
2023-05-14T16:21:02.804Z,79.00
2023-05-14T16:23:29.719Z,78.30
2023-05-14T16:25:56.561Z,79.60
2023-05-14T16:28:23.507Z,80.10
2023-05-14T16:30:50.438Z,80.40
2023-05-14T16:33:17.292Z,81.40
2023-05-14T16:35:45.528Z,78.70
2023-05-14T16:38:12.369Z,80.70
2023-05-14T16:40:39.215Z,81.70
2023-05-14T16:43:06.250Z,82.80
2023-05-14T16:45:35.004Z,84.10
2023-05-14T16:48:01.948Z,84.90
2023-05-14T16:50:28.957Z,85.30
2023-05-14T16:52:55.816Z,84.50
2023-05-14T16:55:23.114Z,85.30
2023-05-14T16:57:50.127Z,86.40
2023-05-14T17:00:18.041Z,86.10
2023-05-14T17:02:44.949Z,86.80
2023-05-14T17:05:11.826Z,87.30
2023-05-14T17:07:39.439Z,90.20
2023-05-14T17:10:07.397Z,91.40
2023-05-14T17:12:34.257Z,92.20
2023-05-14T17:15:04.514Z,93.40
2023-05-14T17:17:32.906Z,94.00
2023-05-14T17:20:00.847Z,94.20
2023-05-14T17:22:28.003Z,94.80
2023-05-14T17:24:54.995Z,95.40
2023-05-14T17:27:21.842Z,96.10
2023-05-14T17:29:51.213Z,97.00
2023-05-14T17:32:18.663Z,97.10
2023-05-14T17:34:45.644Z,96.50
2023-05-14T17:37:12.616Z,97.10
2023-05-14T17:39:39.441Z,98.40
2023-05-14T17:42:06.902Z,98.50
2023-05-14T17:44:33.706Z,99.30
2023-05-14T17:47:00.949Z,98.70
2023-05-14T17:49:27.920Z,99.90
2023-05-14T17:51:54.831Z,99.20
2023-05-14T17:54:21.684Z,99.70
2023-05-14T17:56:51.031Z,99.90
2023-05-14T17:59:17.929Z,99.90
2023-05-14T18:01:44.907Z,99.90
2023-05-14T18:04:11.766Z,99.90
2023-05-14T18:06:38.707Z,99.90
2023-05-14T18:09:05.609Z,99.90
2023-05-14T18:11:35.734Z,99.90
2023-05-14T18:14:03.033Z,99.90
2023-05-14T18:16:30.000Z,99.90
2023-05-14T18:18:56.947Z,99.90
2023-05-14T18:21:23.858Z,99.90
2023-05-14T18:23:50.778Z,99.90
2023-05-14T18:26:18.112Z,99.90
2023-05-14T18:28:45.006Z,99.90
2023-05-14T18:31:11.870Z,99.90
2023-05-14T18:33:38.685Z,99.90
2023-05-14T18:36:05.873Z,99.90
2023-05-14T18:38:32.709Z,99.90
2023-05-14T18:40:59.525Z,99.90
2023-05-14T18:43:26.536Z,99.90
2023-05-14T18:45:54.260Z,99.90
2023-05-14T18:48:21.379Z,99.90
2023-05-14T18:50:48.188Z,99.90
2023-05-14T18:53:15.240Z,99.90
2023-05-14T18:55:42.175Z,99.90
2023-05-14T18:58:09.054Z,99.90
2023-05-14T19:00:36.027Z,99.90
2023-05-14T19:03:02.945Z,99.90
2023-05-14T19:05:29.939Z,99.90
2023-05-14T19:07:57.278Z,99.90
2023-05-14T19:10:24.194Z,99.90
2023-05-14T19:12:51.073Z,99.90
2023-05-14T19:15:18.074Z,99.90
2023-05-14T19:17:45.066Z,99.90
2023-05-14T19:20:12.600Z,99.90
2023-05-14T19:22:39.474Z,99.90
2023-05-14T19:25:07.933Z,99.90
2023-05-14T19:27:37.212Z,99.90
2023-05-14T19:30:04.558Z,99.90
2023-05-14T19:32:31.422Z,99.90
2023-05-14T19:34:58.275Z,99.90
2023-05-14T19:37:25.084Z,99.90
2023-05-14T19:39:52.014Z,99.90
2023-05-14T19:42:18.883Z,99.90
2023-05-14T19:44:45.844Z,99.90
2023-05-14T19:47:12.814Z,99.90
2023-05-14T19:49:39.660Z,99.90
2023-05-14T19:52:06.745Z,99.90
2023-05-14T19:54:33.652Z,99.90
2023-05-14T19:57:00.683Z,99.90
2023-05-14T19:59:29.473Z,99.90
2023-05-14T20:01:56.331Z,99.90
2023-05-14T20:04:23.443Z,99.90
2023-05-14T20:06:50.301Z,99.90
2023-05-14T20:09:17.332Z,99.90
2023-05-14T20:11:44.494Z,99.90
2023-05-14T20:14:11.342Z,99.90
2023-05-14T20:19:06.800Z,99.90
2023-05-14T20:21:33.671Z,99.90
2023-05-14T20:24:00.570Z,99.90
2023-05-14T20:26:27.407Z,99.90
2023-05-14T20:28:55.236Z,99.90
2023-05-14T20:31:22.115Z,99.90
2023-05-14T20:33:49.252Z,99.90
2023-05-14T20:36:16.192Z,99.90
2023-05-14T20:38:43.059Z,99.90
2023-05-14T20:41:09.946Z,99.90
2023-05-14T20:43:36.783Z,99.90
2023-05-14T20:46:05.906Z,99.90
2023-05-14T20:48:32.814Z,99.90
2023-05-14T20:50:59.642Z,99.90
2023-05-14T20:53:28.400Z,99.90
2023-05-14T20:55:55.248Z,99.90
2023-05-14T20:58:22.320Z,99.90
2023-05-14T21:00:49.213Z,99.90
2023-05-14T21:03:16.246Z,99.90
2023-05-14T21:05:43.861Z,99.90
2023-05-14T21:08:11.817Z,99.90
2023-05-14T21:10:38.630Z,99.90
2023-05-14T21:13:05.608Z,99.90
2023-05-14T21:15:32.849Z,99.90
2023-05-14T21:17:59.934Z,99.90
2023-05-14T21:20:26.944Z,99.90
2023-05-14T21:22:53.840Z,99.90
2023-05-14T21:25:20.773Z,99.90
2023-05-14T21:27:47.580Z,99.90
2023-05-14T21:30:14.800Z,99.90
2023-05-14T21:32:41.962Z,99.90
2023-05-14T21:35:09.314Z,99.90
2023-05-14T21:37:36.249Z,99.90
2023-05-14T21:40:03.129Z,99.90
2023-05-14T21:42:30.084Z,99.90
2023-05-14T21:44:56.971Z,99.90
2023-05-14T21:47:23.900Z,99.90
2023-05-14T21:49:50.895Z,99.90
2023-05-14T21:52:17.710Z,99.90
2023-05-14T21:54:44.517Z,99.90
2023-05-14T21:57:11.465Z,99.90
2023-05-14T21:59:38.398Z,99.90
2023-05-14T22:02:07.426Z,99.90
2023-05-14T22:04:35.509Z,99.90
2023-05-14T22:07:02.785Z,99.90
2023-05-14T22:09:30.544Z,99.90
2023-05-14T22:11:58.497Z,99.90
2023-05-14T22:14:27.422Z,99.90
2023-05-14T22:16:54.428Z,99.90
2023-05-14T22:19:21.645Z,99.90
2023-05-14T22:21:48.478Z,99.90
2023-05-14T22:24:15.300Z,99.90
2023-05-14T22:26:42.313Z,99.90
2023-05-14T22:29:09.129Z,99.90
2023-05-14T22:31:36.050Z,99.90
2023-05-14T22:34:02.896Z,99.90
2023-05-14T22:36:29.750Z,99.90
2023-05-14T22:38:56.588Z,99.90
2023-05-14T22:41:23.463Z,99.90
2023-05-14T22:43:51.057Z,99.90
2023-05-14T22:46:17.924Z,99.90
2023-05-14T22:48:45.218Z,99.90
2023-05-14T22:51:12.099Z,99.90
2023-05-14T22:53:38.969Z,99.90
2023-05-14T22:56:06.041Z,99.90
2023-05-14T22:58:33.045Z,99.90
2023-05-14T23:00:59.926Z,99.90
2023-05-14T23:03:26.861Z,99.90
2023-05-14T23:05:53.742Z,99.90
2023-05-14T23:08:20.702Z,99.90
2023-05-14T23:10:47.553Z,99.90
2023-05-14T23:13:14.449Z,99.90
2023-05-14T23:15:41.299Z,99.90
2023-05-14T23:18:08.384Z,99.90
2023-05-14T23:20:35.222Z,99.90
2023-05-14T23:23:02.069Z,99.90
2023-05-14T23:25:29.197Z,99.90
2023-05-14T23:27:56.059Z,99.90
2023-05-14T23:30:22.934Z,99.90
2023-05-14T23:32:49.836Z,99.90
2023-05-14T23:35:16.765Z,99.90
2023-05-14T23:37:47.500Z,99.90
2023-05-14T23:40:15.833Z,99.90
2023-05-14T23:42:43.041Z,99.90
2023-05-14T23:45:10.456Z,99.90
2023-05-14T23:47:37.409Z,99.90
2023-05-14T23:50:04.823Z,99.90
2023-05-14T23:52:31.678Z,99.90
2023-05-14T23:54:58.508Z,99.90
2023-05-14T23:57:26.129Z,99.90
2023-05-14T23:59:53.350Z,99.90
